This is the latest recevied weather packets stored in our database for station/object N2PUI. If no packets are shown the sender has not sent any weather packets the latest 10 day(s).
| Time | Temp. | Humidity | Pressure | Rain* | Wind** | Luminosity | Snow |
|---|---|---|---|---|---|---|---|
| 1777927604 | 21.67° C | 35% | 1006.2 hPa | 0 mm | - | 496 W/m² | - |
| 1777927302 | 21.67° C | 37% | 1006.6 hPa | 0 mm | - | 235 W/m² | - |
| 1777927000 | 21.11° C | 38% | 1006.4 hPa | 0 mm | - | 514 W/m² | - |
| 1777926698 | 21.67° C | 35% | 1006.4 hPa | 0 mm | - | 329 W/m² | - |
| 1777926397 | 21.67° C | 35% | 1006.7 hPa | 0 mm | - | 579 W/m² | - |
| 1777926095 | 21.67° C | 37% | 1006.8 hPa | 0 mm | - | 589 W/m² | - |
| 1777925791 | 21.67° C | 36% | 1006.7 hPa | 0 mm | - | 633 W/m² | - |
| 1777925489 | 21.67° C | 36% | 1006.8 hPa | 0 mm | - | 667 W/m² | - |
| 1777925186 | 22.22° C | 36% | 1006.7 hPa | 0 mm | - | 133 W/m² | - |
| 1777924883 | 22.78° C | 35% | 1006.9 hPa | 0 mm | - | 209 W/m² | - |
| 1777924579 | 22.78° C | 34% | 1006.8 hPa | 0 mm | - | 700 W/m² | - |
| 1777924275 | 22.22° C | 36% | 1007 hPa | 0 mm | - | 724 W/m² | - |
| 1777923972 | 22.22° C | 37% | 1007.1 hPa | 0 mm | - | 441 W/m² | - |
| 1777923668 | 21.67° C | 37% | 1007.1 hPa | 0 mm | - | 216 W/m² | - |
| 1777923364 | 21.67° C | 37% | 1007.1 hPa | 0 mm | - | 242 W/m² | - |
| 1777923063 | 21.67° C | 39% | 1007.3 hPa | 0 mm | - | 789 W/m² | - |
| 1777922761 | 21.67° C | 39% | 1007.2 hPa | 0 mm | - | 187 W/m² | - |
| 1777922458 | 22.78° C | 35% | 1007.4 hPa | 0 mm | - | 858 W/m² | - |
| 1777922156 | 22.22° C | 36% | 1007.3 hPa | 0 mm | - | 852 W/m² | - |
| 1777921852 | 21.67° C | 37% | 1007.3 hPa | 0 mm | - | 791 W/m² | - |
| 1777921549 | 21.11° C | 38% | 1007.4 hPa | 0 mm | - | 747 W/m² | - |
| 1777921245 | 21.11° C | 37% | 1007.5 hPa | 0 mm | - | 756 W/m² | - |
| 1777920942 | 21.67° C | 39% | 1007.6 hPa | 0 mm | - | 776 W/m² | - |
| 1777920638 | 21.67° C | 38% | 1007.5 hPa | 0 mm | - | 380 W/m² | - |
| 1777920334 | 21.67° C | 39% | 1007.6 hPa | 0 mm | - | 279 W/m² | - |
* Rain latest hour (hover to see other rain measurements)
** Current wind speed in m/s (hover to see current wind gust speed)